Time,TemperatureF,DewpointF,PressureIn,WindDirection,WindDirectionDegrees,WindSpeedMPH,WindSpeedGustMPH,Humidity,HourlyPrecipIn,Conditions,Clouds,dailyrainin,SoftwareType,DateUTC
2013-03-15 00:00:00,19.1,8.3,30.05,WNW,288,0.0,9.5,62,0.00,,OVC,0.00,VWS V14.00,2013-03-15 04:00:00,
2013-03-15 00:02:00,19.2,8.3,30.05,West,280,3.7,6.8,62,0.00,,OVC,0.00,VWS V14.00,2013-03-15 04:02:00,
2013-03-15 00:07:00,19.2,8.4,30.05,WNW,288,3.7,7.5,62,0.00,,OVC,0.00,VWS V14.00,2013-03-15 04:07:00,
2013-03-15 00:12:00,19.0,8.2,30.05,WNW,287,2.9,7.5,62,0.00,,OVC,0.00,VWS V14.00,2013-03-15 04:12:00,
2013-03-15 00:17:00,18.9,8.1,30.05,WNW,294,5.9,7.5,62,0.00,,OVC,0.00,VWS V14.00,2013-03-15 04:17:00,
2013-03-15 00:22:00,18.8,8.1,30.06,West,270,3.2,8.5,62,0.00,,OVC,0.00,VWS V14.00,2013-03-15 04:22:00,
2013-03-15 00:27:00,18.6,8.2,30.05,WNW,298,0.0,8.5,63,0.00,,OVC,0.00,VWS V14.00,2013-03-15 04:27:00,
2013-03-15 00:30:00,18.8,9.2,30.05,West,274,1.7,5.1,66,0.00,,SCT,0.00,VWS V14.00,2013-03-15 04:30:00,
2013-03-15 00:32:00,18.7,8.4,30.05,WSW,249,0.0,1.2,64,0.00,,OVC,0.00,VWS V14.00,2013-03-15 04:32:00,
2013-03-15 00:37:00,18.4,8.2,30.05,WSW,249,0.0,1.2,64,0.00,,OVC,0.00,VWS V14.00,2013-03-15 04:37:00,
2013-03-15 00:43:00,18.0,8.0,30.06,WSW,249,0.0,1.2,64,0.00,,OVC,0.00,VWS V14.00,2013-03-15 04:43:00,
2013-03-15 00:48:00,17.7,8.2,30.06,WSW,249,0.0,1.2,66,0.00,,OVC,0.00,VWS V14.00,2013-03-15 04:48:00,
2013-03-15 00:53:00,17.4,8.0,30.06,WSW,249,0.0,1.2,66,0.00,,OVC,0.00,VWS V14.00,2013-03-15 04:53:00,
2013-03-15 00:58:00,17.1,7.8,30.06,WSW,249,0.0,1.2,66,0.00,,OVC,0.00,VWS V14.00,2013-03-15 04:58:00,
2013-03-15 01:00:00,19.1,8.3,30.05,WNW,288,0.0,9.5,62,0.00,,SCT,0.00,VWS V14.00,2013-03-15 05:00:00,
2013-03-15 01:03:00,16.5,7.7,30.06,WSW,249,0.0,0.0,68,0.00,,OVC,0.00,VWS V14.00,2013-03-15 05:03:00,
2013-03-15 01:08:00,16.3,7.7,30.06,WSW,249,0.0,0.0,68,0.00,,OVC,0.00,VWS V14.00,2013-03-15 05:08:00,
2013-03-15 01:13:00,16.6,8.0,30.06,WSW,249,0.0,0.0,68,0.00,,OVC,0.00,VWS V14.00,2013-03-15 05:13:00,
2013-03-15 01:18:00,16.5,7.9,30.06,WSW,249,0.0,0.0,68,0.00,,OVC,0.00,VWS V14.00,2013-03-15 05:18:00,
2013-03-15 01:23:00,16.7,8.0,30.07,WSW,249,0.0,0.0,68,0.00,,OVC,0.00,VWS V14.00,2013-03-15 05:23:00,
2013-03-15 01:28:00,16.4,7.9,30.07,WSW,249,0.0,0.0,68,0.00,,OVC,0.00,VWS V14.00,2013-03-15 05:28:00,
2013-03-15 01:30:00,18.6,8.3,30.05,West,262,0.3,8.5,63,0.00,,SCT,0.00,VWS V14.00,2013-03-15 05:30:00,
2013-03-15 01:33:00,16.0,7.7,30.07,WSW,249,0.0,0.0,69,0.00,,OVC,0.00,VWS V14.00,2013-03-15 05:33:00,
2013-03-15 01:38:00,15.6,7.4,30.06,WSW,249,0.0,0.0,70,0.00,,OVC,0.00,VWS V14.00,2013-03-15 05:38:00,
2013-03-15 01:43:00,15.4,7.7,30.07,WSW,249,0.0,0.0,71,0.00,,OVC,0.00,VWS V14.00,2013-03-15 05:43:00,
2013-03-15 01:48:00,15.0,7.6,30.07,WSW,249,0.0,0.0,72,0.00,,OVC,0.00,VWS V14.00,2013-03-15 05:48:00,
2013-03-15 01:58:00,14.7,7.9,30.06,WSW,249,0.0,0.0,74,0.00,,OVC,0.00,VWS V14.00,2013-03-15 05:58:00,
2013-03-15 02:00:00,16.7,7.7,30.06,WSW,249,0.0,1.2,67,0.00,,SCT,0.00,VWS V14.00,2013-03-15 06:00:00,
2013-03-15 02:03:00,14.2,7.6,30.06,WSW,249,0.0,0.0,74,0.00,,OVC,0.00,VWS V14.00,2013-03-15 06:03:00,
2013-03-15 02:08:00,13.9,7.4,30.05,WSW,249,0.0,0.0,75,0.00,,OVC,0.00,VWS V14.00,2013-03-15 06:08:00,
2013-03-15 02:13:00,13.7,7.4,30.05,WSW,249,0.0,0.0,76,0.00,,OVC,0.00,VWS V14.00,2013-03-15 06:13:00,
2013-03-15 02:18:00,13.8,7.9,30.05,WSW,249,0.0,0.0,77,0.00,,OVC,0.00,VWS V14.00,2013-03-15 06:18:00,
2013-03-15 02:23:00,13.9,8.1,30.05,WSW,249,0.0,0.0,77,0.00,,OVC,0.00,VWS V14.00,2013-03-15 06:23:00,
2013-03-15 02:28:00,14.1,8.2,30.05,WSW,249,0.0,0.0,77,0.00,,OVC,0.00,VWS V14.00,2013-03-15 06:28:00,
2013-03-15 02:30:00,16.3,7.9,30.07,WSW,249,0.0,0.0,69,0.00,,SCT,0.00,VWS V14.00,2013-03-15 06:30:00,
2013-03-15 02:33:00,13.9,7.8,30.05,WSW,249,0.0,0.0,76,0.00,,OVC,0.00,VWS V14.00,2013-03-15 06:33:00,
2013-03-15 02:38:00,13.4,7.7,30.05,WSW,249,0.0,0.0,78,0.00,,OVC,0.00,VWS V14.00,2013-03-15 06:38:00,
2013-03-15 02:43:00,13.5,8.3,30.05,WSW,249,0.0,0.0,79,0.00,,OVC,0.00,VWS V14.00,2013-03-15 06:43:00,
2013-03-15 02:48:00,13.6,8.3,30.05,WSW,249,0.0,0.0,79,0.00,,OVC,0.00,VWS V14.00,2013-03-15 06:48:00,
2013-03-15 02:53:00,13.5,8.0,30.05,WSW,249,0.0,0.0,78,0.00,,OVC,0.00,VWS V14.00,2013-03-15 06:53:00,
2013-03-15 02:58:00,13.4,7.9,30.04,WSW,249,0.0,0.0,78,0.00,,OVC,0.00,VWS V14.00,2013-03-15 06:58:00,
2013-03-15 03:00:00,14.5,7.8,30.06,WSW,249,0.0,0.0,74,0.00,,SCT,0.00,VWS V14.00,2013-03-15 07:00:00,
2013-03-15 03:03:00,13.1,7.7,30.04,WSW,249,0.0,0.0,78,0.00,,OVC,0.00,VWS V14.00,2013-03-15 07:03:00,
2013-03-15 03:08:00,12.7,7.5,30.04,WSW,249,0.0,0.0,79,0.00,,OVC,0.00,VWS V14.00,2013-03-15 07:08:00,
2013-03-15 03:13:00,13.0,8.0,30.04,WSW,249,0.0,0.0,80,0.00,,OVC,0.00,VWS V14.00,2013-03-15 07:13:00,
2013-03-15 03:18:00,13.3,8.2,30.04,WSW,249,0.0,0.0,80,0.00,,OVC,0.00,VWS V14.00,2013-03-15 07:18:00,
2013-03-15 03:23:00,14.4,9.5,30.03,WSW,249,0.0,0.0,80,0.00,,OVC,0.00,VWS V14.00,2013-03-15 07:23:00,
2013-03-15 03:28:00,14.5,9.2,30.03,WSW,249,0.0,0.0,79,0.00,,OVC,0.00,VWS V14.00,2013-03-15 07:28:00,
2013-03-15 03:30:00,14.1,8.1,30.05,WSW,249,0.0,0.0,77,0.00,,SCT,0.00,VWS V14.00,2013-03-15 07:30:00,
2013-03-15 03:33:00,14.4,8.9,30.03,WSW,249,0.0,0.0,78,0.00,,OVC,0.00,VWS V14.00,2013-03-15 07:33:00,
2013-03-15 03:38:00,14.5,8.9,30.02,WSW,249,0.0,0.0,78,0.00,,OVC,0.00,VWS V14.00,2013-03-15 07:38:00,
2013-03-15 03:43:00,14.8,9.4,30.02,WSW,249,0.0,0.0,79,0.00,,OVC,0.00,VWS V14.00,2013-03-15 07:43:00,
2013-03-15 03:48:00,14.7,9.0,30.02,WSW,249,0.0,0.0,78,0.00,,OVC,0.00,VWS V14.00,2013-03-15 07:48:00,
2013-03-15 03:53:00,14.7,9.0,30.01,WSW,249,0.0,0.0,78,0.00,,OVC,0.00,VWS V14.00,2013-03-15 07:53:00,
2013-03-15 03:58:00,14.4,8.7,30.01,WSW,249,0.0,0.0,78,0.00,,OVC,0.00,VWS V14.00,2013-03-15 07:58:00,
2013-03-15 04:00:00,13.2,7.7,30.05,WSW,249,0.0,0.0,78,0.00,,SCT,0.00,VWS V14.00,2013-03-15 08:00:00,
2013-03-15 04:03:00,14.4,9.1,30.01,WSW,249,0.0,0.0,79,0.00,,OVC,0.00,VWS V14.00,2013-03-15 08:03:00,
2013-03-15 04:08:00,14.5,9.1,30.00,WSW,249,0.0,0.0,79,0.00,,OVC,0.00,VWS V14.00,2013-03-15 08:08:00,
2013-03-15 04:13:00,14.7,9.2,30.00,WSW,249,0.0,0.0,78,0.00,,OVC,0.00,VWS V14.00,2013-03-15 08:13:00,
2013-03-15 04:18:00,14.6,8.8,30.00,SSE,156,1.5,4.0,77,0.00,,OVC,0.00,VWS V14.00,2013-03-15 08:18:00,
2013-03-15 04:24:00,14.7,8.9,30.00,South,184,0.0,4.0,77,0.00,,OVC,0.00,VWS V14.00,2013-03-15 08:24:00,
2013-03-15 04:29:00,14.7,9.1,29.99,South,177,0.0,4.0,78,0.00,,OVC,0.00,VWS V14.00,2013-03-15 08:29:00,
2013-03-15 04:30:00,14.5,9.2,30.03,WSW,249,0.0,0.0,79,0.00,,SCT,0.00,VWS V14.00,2013-03-15 08:30:00,
2013-03-15 04:34:00,14.9,9.5,29.99,SSE,160,0.0,2.7,79,0.00,,OVC,0.00,VWS V14.00,2013-03-15 08:34:00,
2013-03-15 04:39:00,14.8,9.1,29.99,SSE,160,0.0,2.7,78,0.00,,OVC,0.00,VWS V14.00,2013-03-15 08:39:00,
2013-03-15 04:44:00,14.7,8.9,29.99,South,172,0.0,2.7,77,0.00,,OVC,0.00,VWS V14.00,2013-03-15 08:44:00,
2013-03-15 04:49:00,14.9,9.6,29.98,South,172,0.0,2.7,79,0.00,,OVC,0.00,VWS V14.00,2013-03-15 08:49:00,
2013-03-15 04:54:00,15.2,9.9,29.98,South,172,0.0,2.7,79,0.00,,OVC,0.00,VWS V14.00,2013-03-15 08:54:00,
2013-03-15 04:59:00,15.1,9.6,29.98,South,172,0.0,2.7,78,0.00,,OVC,0.00,VWS V14.00,2013-03-15 08:59:00,
2013-03-15 05:00:00,14.5,8.8,30.01,WSW,249,0.0,0.0,78,0.00,,SCT,0.00,VWS V14.00,2013-03-15 09:00:00,
2013-03-15 05:04:00,14.7,9.4,29.98,South,172,0.0,0.0,79,0.00,,OVC,0.00,VWS V14.00,2013-03-15 09:04:00,
2013-03-15 05:09:00,14.2,9.0,29.97,South,172,0.0,0.0,79,0.00,,OVC,0.00,VWS V14.00,2013-03-15 09:09:00,
2013-03-15 05:14:00,14.2,9.2,29.97,South,172,0.0,0.0,80,0.00,,OVC,0.00,VWS V14.00,2013-03-15 09:14:00,
2013-03-15 05:19:00,14.5,9.8,29.97,South,172,0.0,0.0,81,0.00,,OVC,0.00,VWS V14.00,2013-03-15 09:19:00,
2013-03-15 05:24:00,14.6,9.6,29.97,South,172,0.0,0.0,80,0.00,,OVC,0.00,VWS V14.00,2013-03-15 09:24:00,
2013-03-15 05:29:00,14.8,9.6,29.97,South,172,0.0,0.0,80,0.00,,OVC,0.00,VWS V14.00,2013-03-15 09:29:00,
2013-03-15 05:30:00,14.9,9.4,29.99,South,170,2.0,4.0,78,0.00,,SCT,0.00,VWS V14.00,2013-03-15 09:30:00,
2013-03-15 05:34:00,14.8,9.5,29.96,South,172,0.0,0.0,79,0.00,,OVC,0.00,VWS V14.00,2013-03-15 09:34:00,
2013-03-15 05:39:00,14.9,9.6,29.96,SSW,197,0.0,3.0,79,0.00,,OVC,0.00,VWS V14.00,2013-03-15 09:39:00,
2013-03-15 05:44:00,14.9,9.4,29.96,SSW,197,0.0,3.0,78,0.00,,OVC,0.00,VWS V14.00,2013-03-15 09:44:00,
2013-03-15 05:49:00,14.8,9.3,29.96,South,190,0.0,3.0,78,0.00,,OVC,0.00,VWS V14.00,2013-03-15 09:49:00,
2013-03-15 05:54:00,14.9,9.6,29.96,South,190,0.0,3.0,79,0.00,,OVC,0.00,VWS V14.00,2013-03-15 09:54:00,
2013-03-15 05:59:00,15.1,9.8,29.95,South,190,0.0,3.0,79,0.00,,OVC,0.00,VWS V14.00,2013-03-15 09:59:00,
2013-03-15 06:00:00,15.2,9.7,29.98,South,172,0.0,2.7,78,0.00,,SCT,0.00,VWS V14.00,2013-03-15 10:00:00,
2013-03-15 06:04:00,15.1,9.7,29.95,South,190,0.0,0.0,79,0.00,,OVC,0.00,VWS V14.00,2013-03-15 10:04:00,
2013-03-15 06:09:00,15.3,9.9,29.95,SW,219,0.0,3.0,79,0.00,,OVC,0.00,VWS V14.00,2013-03-15 10:09:00,
2013-03-15 06:14:00,15.2,9.8,29.94,SE,131,1.3,3.0,79,0.00,,OVC,0.00,VWS V14.00,2013-03-15 10:14:00,
2013-03-15 06:19:00,15.2,9.8,29.94,SE,131,0.0,3.0,79,0.00,,OVC,0.00,VWS V14.00,2013-03-15 10:19:00,
2013-03-15 06:24:00,15.2,9.9,29.94,SE,131,0.0,3.0,79,0.00,,OVC,0.00,VWS V14.00,2013-03-15 10:24:00,
2013-03-15 06:29:00,14.9,9.6,29.94,SE,131,0.0,3.0,79,0.00,,OVC,0.00,VWS V14.00,2013-03-15 10:29:00,
2013-03-15 06:30:00,14.6,9.4,29.97,South,172,0.0,0.0,80,0.00,,SCT,0.00,VWS V14.00,2013-03-15 10:30:00,
2013-03-15 06:34:00,15.0,9.5,29.94,SE,131,0.0,0.0,78,0.00,,OVC,0.00,VWS V14.00,2013-03-15 10:34:00,
2013-03-15 06:39:00,15.2,9.7,29.93,SE,131,0.0,0.0,78,0.00,,OVC,0.00,VWS V14.00,2013-03-15 10:39:00,
2013-03-15 06:44:00,15.1,9.4,29.93,SSE,163,4.0,5.2,78,0.00,,OVC,0.00,VWS V14.00,2013-03-15 10:44:00,
2013-03-15 06:49:00,15.3,9.5,29.93,South,179,4.2,5.2,77,0.00,,OVC,0.00,VWS V14.00,2013-03-15 10:49:00,
2013-03-15 06:54:00,15.5,9.5,29.93,South,183,0.0,5.2,77,0.00,,OVC,0.00,VWS V14.00,2013-03-15 10:54:00,
2013-03-15 06:59:00,15.4,9.4,29.93,SW,222,0.0,5.5,77,0.00,,OVC,0.00,VWS V14.00,2013-03-15 10:59:00,
2013-03-15 07:00:00,15.1,9.9,29.95,South,190,0.0,3.0,80,0.00,,SCT,0.00,VWS V14.00,2013-03-15 11:00:00,
2013-03-15 07:04:00,15.3,9.2,29.93,SSW,200,1.4,5.1,76,0.00,,OVC,0.00,VWS V14.00,2013-03-15 11:04:00,
2013-03-15 07:09:00,15.3,9.3,29.93,SSW,195,0.0,5.1,77,0.00,,OVC,0.00,VWS V14.00,2013-03-15 11:09:00,
2013-03-15 07:14:00,15.4,9.6,29.93,SSW,200,0.0,5.1,77,0.00,,BKN,0.00,VWS V14.00,2013-03-15 11:14:00,
2013-03-15 07:19:00,15.5,9.6,29.92,SSW,198,2.1,7.5,77,0.00,,BKN,0.00,VWS V14.00,2013-03-15 11:19:00,
2013-03-15 07:24:00,15.7,9.6,29.92,SSW,210,5.2,7.5,76,0.00,,SCT,0.00,VWS V14.00,2013-03-15 11:24:00,
2013-03-15 07:29:00,15.7,9.6,29.91,South,177,4.9,7.5,76,0.00,,SCT,0.00,VWS V14.00,2013-03-15 11:29:00,
2013-03-15 07:30:00,15.0,9.6,29.94,SE,131,0.0,3.0,79,0.00,,SCT,0.00,VWS V14.00,2013-03-15 11:30:00,
2013-03-15 07:34:00,16.0,9.6,29.91,South,184,7.3,11.3,75,0.00,,SCT,0.00,VWS V14.00,2013-03-15 11:34:00,
2013-03-15 07:39:00,16.3,9.8,29.90,SSE,165,7.5,11.3,75,0.00,,SCT,0.00,VWS V14.00,2013-03-15 11:39:00,
2013-03-15 07:44:00,16.6,9.9,29.90,SSE,160,8.1,11.3,74,0.00,,SCT,0.00,VWS V14.00,2013-03-15 11:44:00,
2013-03-15 07:49:00,16.9,9.9,29.89,SSE,162,7.5,11.3,73,0.00,,SCT,0.00,VWS V14.00,2013-03-15 11:49:00,
2013-03-15 07:54:00,17.2,10.0,29.89,South,176,5.5,11.3,73,0.00,,SCT,0.00,VWS V14.00,2013-03-15 11:54:00,
2013-03-15 07:59:00,17.5,10.1,29.89,SW,215,2.7,11.3,72,0.00,,SCT,0.00,VWS V14.00,2013-03-15 11:59:00,
2013-03-15 08:00:00,15.4,9.4,29.93,SSW,208,0.2,5.5,77,0.00,,SCT,0.00,VWS V14.00,2013-03-15 12:00:00,
2013-03-15 08:04:00,17.6,10.2,29.88,South,181,3.4,8.5,72,0.00,,SCT,0.00,VWS V14.00,2013-03-15 12:04:00,
2013-03-15 08:09:00,17.7,10.2,29.88,SSW,193,1.6,8.5,72,0.00,,SCT,0.00,VWS V14.00,2013-03-15 12:09:00,
2013-03-15 08:14:00,17.9,10.5,29.88,South,190,2.2,8.5,72,0.00,,SCT,0.00,VWS V14.00,2013-03-15 12:14:00,
2013-03-15 08:19:00,18.1,10.6,29.88,SSW,198,4.1,8.5,72,0.00,,SCT,0.00,VWS V14.00,2013-03-15 12:19:00,
2013-03-15 08:24:00,18.4,10.9,29.89,SW,235,3.3,8.5,72,0.00,,SCT,0.00,VWS V14.00,2013-03-15 12:24:00,
2013-03-15 08:29:00,18.6,11.0,29.88,SSW,201,3.9,8.5,72,0.00,,SCT,0.00,VWS V14.00,2013-03-15 12:29:00,
2013-03-15 08:30:00,15.8,9.6,29.91,SW,222,5.5,8.5,76,0.00,,SCT,0.00,VWS V14.00,2013-03-15 12:30:00,
2013-03-15 08:34:00,18.9,11.2,29.87,SSE,159,2.7,5.7,72,0.00,,SCT,0.00,VWS V14.00,2013-03-15 12:34:00,
2013-03-15 08:39:00,19.3,11.2,29.87,SW,217,3.7,8.6,70,0.00,,SCT,0.00,VWS V14.00,2013-03-15 12:39:00,
2013-03-15 08:44:00,19.3,11.1,29.87,SSW,195,8.5,9.9,70,0.00,,SCT,0.00,VWS V14.00,2013-03-15 12:44:00,
2013-03-15 08:49:00,19.4,11.0,29.87,SSW,194,4.3,12.2,69,0.00,,SCT,0.00,VWS V14.00,2013-03-15 12:49:00,
2013-03-15 08:54:00,19.3,10.9,29.87,SSW,197,7.7,12.2,69,0.00,,SCT,0.00,VWS V14.00,2013-03-15 12:54:00,
2013-03-15 08:59:00,19.5,11.1,29.86,WSW,246,5.3,12.2,69,0.00,,SCT,0.00,VWS V14.00,2013-03-15 12:59:00,
2013-03-15 09:00:00,17.5,10.3,29.89,South,181,8.5,11.3,73,0.00,,SCT,0.00,VWS V14.00,2013-03-15 13:00:00,
2013-03-15 09:04:00,19.8,11.4,29.86,SW,225,4.0,9.6,70,0.00,,SCT,0.00,VWS V14.00,2013-03-15 13:04:00,
2013-03-15 09:09:00,20.1,11.6,29.85,SSE,160,1.9,9.6,69,0.00,,SCT,0.00,VWS V14.00,2013-03-15 13:09:00,
2013-03-15 09:14:00,20.7,12.1,29.85,SSW,204,4.0,9.6,69,0.00,,SCT,0.00,VWS V14.00,2013-03-15 13:14:00,
2013-03-15 09:19:00,21.2,12.3,29.85,SSW,195,5.7,9.7,68,0.00,,SCT,0.00,VWS V14.00,2013-03-15 13:19:00,
2013-03-15 09:24:00,21.5,12.4,29.85,South,181,4.2,10.6,67,0.00,,SCT,0.00,VWS V14.00,2013-03-15 13:24:00,
2013-03-15 09:29:00,21.9,13.0,29.85,SW,214,3.0,10.6,68,0.00,,SCT,0.00,VWS V14.00,2013-03-15 13:29:00,
2013-03-15 09:30:00,18.7,11.0,29.88,SW,221,2.3,8.5,71,0.00,,SCT,0.00,VWS V14.00,2013-03-15 13:30:00,
2013-03-15 09:34:00,22.2,13.6,29.84,SW,222,5.5,7.6,69,0.00,,SCT,0.00,VWS V14.00,2013-03-15 13:34:00,
2013-03-15 09:39:00,22.6,13.9,29.84,SSE,158,6.0,10.9,69,0.00,,SCT,0.00,VWS V14.00,2013-03-15 13:39:00,
2013-03-15 09:44:00,22.9,14.5,29.84,South,184,7.5,10.9,70,0.00,,SCT,0.00,VWS V14.00,2013-03-15 13:44:00,
2013-03-15 09:49:00,23.4,15.1,29.83,SSW,210,3.4,10.9,70,0.00,,SCT,0.00,VWS V14.00,2013-03-15 13:49:00,
2013-03-15 09:54:00,23.7,15.2,29.82,SSW,211,4.5,10.9,70,0.00,,SCT,0.00,VWS V14.00,2013-03-15 13:54:00,
2013-03-15 09:59:00,24.1,15.2,29.82,SSE,148,9.8,10.9,68,0.00,,SCT,0.00,VWS V14.00,2013-03-15 13:59:00,
2013-03-15 10:00:00,19.4,10.9,29.86,SW,214,3.0,12.2,69,0.00,,SCT,0.00,VWS V14.00,2013-03-15 14:00:00,
2013-03-15 10:04:00,24.6,15.5,29.82,SW,214,2.7,9.8,68,0.00,,SCT,0.00,VWS V14.00,2013-03-15 14:04:00,
2013-03-15 10:09:00,25.0,15.6,29.81,SSE,153,8.5,11.0,67,0.00,,SCT,0.00,VWS V14.00,2013-03-15 14:09:00,
2013-03-15 10:14:00,25.4,16.0,29.80,South,186,6.9,14.2,67,0.00,,SCT,0.00,VWS V14.00,2013-03-15 14:14:00,
2013-03-15 10:19:00,25.8,16.6,29.80,SE,142,7.8,14.2,68,0.00,,SCT,0.00,VWS V14.00,2013-03-15 14:19:00,
2013-03-15 10:24:00,26.3,17.2,29.79,SSW,202,3.4,14.2,68,0.00,,SCT,0.00,VWS V14.00,2013-03-15 14:24:00,
2013-03-15 10:29:00,26.6,17.4,29.79,SSE,153,8.8,14.2,68,0.00,,SCT,0.00,VWS V14.00,2013-03-15 14:29:00,
2013-03-15 10:30:00,21.8,13.2,29.85,WSW,243,5.4,10.6,69,0.00,,SCT,0.00,VWS V14.00,2013-03-15 14:30:00,
2013-03-15 10:34:00,27.1,17.6,29.79,SSE,149,9.0,12.6,67,0.00,,SCT,0.00,VWS V14.00,2013-03-15 14:34:00,
2013-03-15 10:39:00,27.5,18.1,29.78,South,169,5.8,17.1,67,0.00,,SCT,0.00,VWS V14.00,2013-03-15 14:39:00,
2013-03-15 10:45:00,28.2,18.2,29.78,SSE,165,8.5,17.1,66,0.00,,SCT,0.00,VWS V14.00,2013-03-15 14:45:00,
2013-03-15 10:50:00,28.3,18.0,29.77,SE,142,9.1,17.1,65,0.00,,SCT,0.00,VWS V14.00,2013-03-15 14:50:00,
2013-03-15 10:55:00,28.5,18.4,29.77,South,184,6.3,17.1,65,0.00,,SCT,0.00,VWS V14.00,2013-03-15 14:55:00,
2013-03-15 11:00:00,28.8,18.6,29.76,SSE,163,10.7,17.1,65,0.00,,SCT,0.00,VWS V14.00,2013-03-15 15:00:00,
2013-03-15 11:05:00,29.0,19.2,29.76,South,190,8.1,15.0,66,0.00,,SCT,0.00,VWS V14.00,2013-03-15 15:05:00,
2013-03-15 11:10:00,29.0,19.7,29.76,SW,221,7.0,15.7,68,0.00,,SCT,0.00,VWS V14.00,2013-03-15 15:10:00,
2013-03-15 11:15:00,28.7,20.4,29.76,SSW,200,7.8,16.5,71,0.00,,SCT,0.00,VWS V14.00,2013-03-15 15:15:00,
2013-03-15 11:20:00,28.5,20.6,29.75,South,172,7.3,17.0,72,0.00,,SCT,0.00,VWS V14.00,2013-03-15 15:20:00,
2013-03-15 11:25:00,29.3,21.9,29.75,WSW,245,7.1,17.0,73,0.00,,SCT,0.00,VWS V14.00,2013-03-15 15:25:00,
2013-03-15 11:30:00,29.2,21.5,29.75,SSW,195,8.1,18.0,73,0.00,,SCT,0.00,VWS V14.00,2013-03-15 15:30:00,
2013-03-15 11:35:00,29.2,22.1,29.74,SSW,208,11.4,14.0,74,0.00,,SCT,0.00,VWS V14.00,2013-03-15 15:35:00,
2013-03-15 11:40:00,29.1,22.2,29.74,SSW,202,7.1,14.9,75,0.00,,SCT,0.00,VWS V14.00,2013-03-15 15:40:00,
2013-03-15 11:45:00,28.8,22.3,29.74,SSE,165,4.4,16.0,76,0.00,,SCT,0.00,VWS V14.00,2013-03-15 15:45:00,
2013-03-15 11:50:00,29.1,22.6,29.73,South,187,12.4,16.0,76,0.00,,SCT,0.00,VWS V14.00,2013-03-15 15:50:00,
2013-03-15 11:55:00,29.1,22.5,29.73,SSW,205,8.6,16.0,76,0.00,,SCT,0.00,VWS V14.00,2013-03-15 15:55:00,
2013-03-15 12:00:00,30.0,23.5,29.72,SSW,198,5.3,16.0,77,0.00,,SCT,0.00,VWS V14.00,2013-03-15 16:00:00,
2013-03-15 12:05:00,29.8,23.6,29.72,South,187,5.3,16.0,77,0.00,,SCT,0.00,VWS V14.00,2013-03-15 16:05:00,
2013-03-15 12:10:00,30.4,24.1,29.71,WNW,292,2.5,16.0,77,0.00,,SCT,0.00,VWS V14.00,2013-03-15 16:10:00,
2013-03-15 12:15:00,30.6,23.7,29.71,South,174,7.9,16.5,75,0.00,,SCT,0.00,VWS V14.00,2013-03-15 16:15:00,
2013-03-15 12:20:00,30.5,24.4,29.71,SSW,212,9.6,16.5,78,0.00,,SCT,0.00,VWS V14.00,2013-03-15 16:20:00,
2013-03-15 12:25:00,30.1,25.0,29.71,SSW,204,9.3,16.5,81,0.00,,SCT,0.00,VWS V14.00,2013-03-15 16:25:00,
2013-03-15 12:30:00,30.0,25.4,29.71,SSW,207,3.4,17.9,83,0.00,,SCT,0.00,VWS V14.00,2013-03-15 16:30:00,
2013-03-15 12:35:00,30.5,25.7,29.70,SSW,201,7.8,11.5,82,0.00,,SCT,0.00,VWS V14.00,2013-03-15 16:35:00,
2013-03-15 12:40:00,30.3,25.1,29.70,SSW,202,10.4,16.8,81,0.00,,SCT,0.00,VWS V14.00,2013-03-15 16:40:00,
2013-03-15 12:45:00,30.6,25.6,29.69,SSW,197,8.3,16.8,82,0.00,,SCT,0.00,VWS V14.00,2013-03-15 16:45:00,
2013-03-15 12:50:00,30.3,25.1,29.69,SSW,200,12.4,17.2,81,0.00,,SCT,0.00,VWS V14.00,2013-03-15 16:50:00,
2013-03-15 12:55:00,30.8,25.4,29.69,SW,225,7.0,17.2,80,0.00,,SCT,0.00,VWS V14.00,2013-03-15 16:55:00,
2013-03-15 13:00:00,30.9,25.2,29.69,South,191,11.7,17.2,79,0.00,,SCT,0.00,VWS V14.00,2013-03-15 17:00:00,
2013-03-15 13:05:00,31.0,25.6,29.69,SW,219,9.5,17.9,80,0.00,,OVC,0.00,VWS V14.00,2013-03-15 17:05:00,
2013-03-15 13:10:00,31.1,26.0,29.68,SSW,210,7.5,17.9,81,0.00,,OVC,0.00,VWS V14.00,2013-03-15 17:10:00,
2013-03-15 13:15:00,30.9,26.3,29.68,SW,228,9.3,18.8,83,0.00,,OVC,0.00,VWS V14.00,2013-03-15 17:15:00,
2013-03-15 13:20:00,30.7,26.8,29.69,SW,232,9.1,20.6,85,0.00,,OVC,0.00,VWS V14.00,2013-03-15 17:20:00,
2013-03-15 13:25:00,30.6,27.2,29.68,SW,228,3.9,20.6,87,0.00,,OVC,0.00,VWS V14.00,2013-03-15 17:25:00,
2013-03-15 13:30:00,30.6,27.6,29.69,WSW,238,6.3,20.6,89,0.00,,OVC,0.00,VWS V14.00,2013-03-15 17:30:00,
2013-03-15 13:35:00,30.5,27.9,29.68,SW,235,9.8,12.8,90,0.00,,OVC,0.00,VWS V14.00,2013-03-15 17:35:00,
2013-03-15 13:40:00,30.6,28.0,29.68,SW,236,8.6,16.0,90,0.00,,OVC,0.00,VWS V14.00,2013-03-15 17:40:00,
2013-03-15 13:45:00,30.9,28.4,29.68,SSW,210,9.3,16.0,90,0.00,,OVC,0.00,VWS V14.00,2013-03-15 17:45:00,
2013-03-15 13:50:00,31.3,28.8,29.68,WSW,240,8.0,16.0,90,0.00,,OVC,0.00,VWS V14.00,2013-03-15 17:50:00,
2013-03-15 13:55:00,31.5,28.6,29.68,SSW,210,14.3,16.0,89,0.00,,OVC,0.00,VWS V14.00,2013-03-15 17:55:00,
2013-03-15 14:00:00,31.7,28.6,29.68,WSW,239,6.7,16.7,88,0.00,,OVC,0.00,VWS V14.00,2013-03-15 18:00:00,
2013-03-15 14:05:00,31.9,28.7,29.67,SW,229,7.3,13.7,88,0.00,,OVC,0.00,VWS V14.00,2013-03-15 18:05:00,
2013-03-15 14:10:00,31.9,28.5,29.67,SW,215,9.6,15.7,87,0.00,,OVC,0.00,VWS V14.00,2013-03-15 18:10:00,
2013-03-15 14:15:00,32.2,28.5,29.67,SW,221,6.8,22.1,86,0.00,,OVC,0.00,VWS V14.00,2013-03-15 18:15:00,
2013-03-15 14:20:00,32.4,28.6,29.67,West,277,7.9,22.1,86,0.00,,OVC,0.00,VWS V14.00,2013-03-15 18:20:00,
2013-03-15 14:25:00,32.7,28.9,29.66,West,260,7.8,22.1,86,0.00,,OVC,0.00,VWS V14.00,2013-03-15 18:25:00,
2013-03-15 14:30:00,32.5,28.6,29.66,WSW,256,6.0,8.6,85,0.00,,OVC,0.00,VWS V14.00,2013-03-15 18:30:00,
2013-03-15 14:35:00,32.8,28.9,29.66,West,274,5.7,8.6,85,0.00,,OVC,0.00,VWS V14.00,2013-03-15 18:35:00,
2013-03-15 14:40:00,33.2,29.1,29.66,West,269,3.8,8.6,85,0.00,,OVC,0.00,VWS V14.00,2013-03-15 18:40:00,
2013-03-15 14:45:00,33.3,28.7,29.65,West,274,6.0,12.0,83,0.00,,OVC,0.00,VWS V14.00,2013-03-15 18:45:00,
2013-03-15 14:50:00,33.6,29.0,29.65,WSW,257,3.9,12.0,83,0.00,,OVC,0.00,VWS V14.00,2013-03-15 18:50:00,
2013-03-15 14:55:00,33.1,29.0,29.65,West,277,9.3,12.0,84,0.00,,OVC,0.00,VWS V14.00,2013-03-15 18:55:00,
2013-03-15 15:00:00,32.9,29.5,29.65,SW,225,3.2,6.5,87,0.00,,OVC,0.00,VWS V14.00,2013-03-15 19:00:00,
2013-03-15 15:05:00,32.4,30.0,29.65,West,263,6.9,14.2,91,0.00,,OVC,0.00,VWS V14.00,2013-03-15 19:05:00,
2013-03-15 15:10:00,32.1,30.1,29.65,SW,236,8.9,14.2,92,0.00,,OVC,0.00,VWS V14.00,2013-03-15 19:10:00,
2013-03-15 15:15:00,32.0,30.2,29.65,WNW,285,7.3,14.2,93,0.00,,OVC,0.00,VWS V14.00,2013-03-15 19:15:00,
2013-03-15 15:20:00,32.3,30.4,29.65,SW,235,8.3,14.2,92,0.00,,OVC,0.00,VWS V14.00,2013-03-15 19:20:00,
2013-03-15 15:25:00,32.7,30.3,29.65,SW,232,5.3,14.2,91,0.00,,OVC,0.00,VWS V14.00,2013-03-15 19:25:00,
2013-03-15 15:30:00,33.2,30.6,29.65,WSW,238,4.8,5.6,90,0.00,,OVC,0.00,VWS V14.00,2013-03-15 19:30:00,
2013-03-15 15:35:00,33.4,30.1,29.64,West,274,7.5,10.8,88,0.00,,OVC,0.00,VWS V14.00,2013-03-15 19:35:00,
2013-03-15 15:40:00,34.0,30.1,29.64,WSW,243,4.7,10.8,86,0.00,,OVC,0.00,VWS V14.00,2013-03-15 19:40:00,
2013-03-15 15:45:00,34.9,29.5,29.64,WSW,242,5.9,12.6,80,0.00,,OVC,0.00,VWS V14.00,2013-03-15 19:45:00,
2013-03-15 15:50:00,35.3,28.9,29.64,SW,236,12.0,17.5,77,0.00,,OVC,0.00,VWS V14.00,2013-03-15 19:50:00,
2013-03-15 15:55:00,35.3,29.0,29.64,SW,222,7.1,17.5,78,0.00,,OVC,0.00,VWS V14.00,2013-03-15 19:55:00,
2013-03-15 16:00:00,35.2,28.6,29.64,SW,232,14.1,14.7,77,0.00,,OVC,0.00,VWS V14.00,2013-03-15 20:00:00,
2013-03-15 16:05:00,35.1,29.0,29.64,WSW,248,8.0,16.0,78,0.00,,OVC,0.00,VWS V14.00,2013-03-15 20:05:00,
2013-03-15 16:10:00,35.1,28.8,29.64,West,263,7.8,16.0,78,0.00,,OVC,0.00,VWS V14.00,2013-03-15 20:10:00,
2013-03-15 16:15:00,35.4,29.0,29.64,SW,226,6.3,16.3,77,0.00,,OVC,0.00,VWS V14.00,2013-03-15 20:15:00,
2013-03-15 16:20:00,35.2,28.4,29.64,West,271,12.3,16.3,76,0.00,,OVC,0.00,VWS V14.00,2013-03-15 20:20:00,
2013-03-15 16:25:00,35.0,28.7,29.64,SW,219,6.2,18.5,77,0.00,,OVC,0.00,VWS V14.00,2013-03-15 20:25:00,
2013-03-15 16:30:00,34.9,28.5,29.64,WSW,245,5.0,10.3,77,0.00,,OVC,0.00,VWS V14.00,2013-03-15 20:30:00,
2013-03-15 16:35:00,34.7,28.4,29.64,WNW,284,5.8,14.5,78,0.00,,OVC,0.00,VWS V14.00,2013-03-15 20:35:00,
2013-03-15 16:40:00,34.6,28.7,29.64,WNW,283,6.1,14.5,79,0.00,,OVC,0.00,VWS V14.00,2013-03-15 20:40:00,
2013-03-15 16:45:00,34.3,29.0,29.65,WNW,297,7.0,14.5,81,0.00,,OVC,0.00,VWS V14.00,2013-03-15 20:45:00,
2013-03-15 16:50:00,32.5,30.5,29.66,NW,312,13.5,18.7,92,0.00,,OVC,0.00,VWS V14.00,2013-03-15 20:50:00,
2013-03-15 16:55:00,30.6,29.4,29.66,NNW,330,12.0,18.7,95,0.00,,OVC,0.00,VWS V14.00,2013-03-15 20:55:00,
2013-03-15 17:00:00,29.3,28.2,29.67,WNW,284,10.9,11.6,96,0.00,,OVC,0.00,VWS V14.00,2013-03-15 21:00:00,
2013-03-15 17:05:00,29.0,28.0,29.67,WNW,295,4.0,12.7,96,0.00,,OVC,0.00,VWS V14.00,2013-03-15 21:05:00,
2013-03-15 17:10:00,29.1,28.1,29.67,North,6,3.7,12.7,96,0.00,,OVC,0.00,VWS V14.00,2013-03-15 21:10:00,
2013-03-15 17:15:00,29.2,28.2,29.68,NW,323,1.4,12.7,96,0.00,,OVC,0.00,VWS V14.00,2013-03-15 21:15:00,
2013-03-15 17:20:00,29.4,28.4,29.68,NNW,330,4.6,12.7,96,0.00,,OVC,0.00,VWS V14.00,2013-03-15 21:20:00,
2013-03-15 17:25:00,29.7,28.5,29.68,WNW,298,1.6,12.7,95,0.00,,OVC,0.00,VWS V14.00,2013-03-15 21:25:00,
2013-03-15 17:30:00,29.8,28.3,29.68,WNW,302,4.5,8.8,94,0.00,,OVC,0.00,VWS V14.00,2013-03-15 21:30:00,
2013-03-15 17:35:00,30.2,28.0,29.68,North,1,0.4,9.5,91,0.00,,OVC,0.00,VWS V14.00,2013-03-15 21:35:00,
2013-03-15 17:40:00,30.4,27.1,29.68,WNW,287,8.1,10.1,88,0.00,,OVC,0.00,VWS V14.00,2013-03-15 21:40:00,
2013-03-15 17:45:00,30.7,27.1,29.69,WNW,283,1.9,10.1,86,0.00,,OVC,0.00,VWS V14.00,2013-03-15 21:45:00,
2013-03-15 17:50:00,30.9,26.8,29.69,West,278,6.2,10.1,85,0.00,,OVC,0.00,VWS V14.00,2013-03-15 21:50:00,
2013-03-15 17:55:00,31.1,26.9,29.69,West,259,0.0,10.1,84,0.00,,FEW,0.00,VWS V14.00,2013-03-15 21:55:00,
2013-03-15 18:00:00,31.2,26.5,29.69,WNW,297,7.2,7.5,83,0.00,,FEW,0.00,VWS V14.00,2013-03-15 22:00:00,
2013-03-15 18:05:00,30.9,26.2,29.69,West,274,5.2,11.5,82,0.00,,FEW,0.00,VWS V14.00,2013-03-15 22:05:00,
2013-03-15 18:11:00,30.6,26.0,29.70,WNW,285,6.3,13.2,83,0.00,,FEW,0.00,VWS V14.00,2013-03-15 22:11:00,
2013-03-15 18:16:00,30.7,25.5,29.70,WNW,292,5.6,13.3,81,0.00,,FEW,0.00,VWS V14.00,2013-03-15 22:16:00,
2013-03-15 18:21:00,30.6,25.0,29.70,WNW,302,3.5,15.5,79,0.00,,FEW,0.00,VWS V14.00,2013-03-15 22:21:00,
2013-03-15 18:26:00,30.7,24.4,29.71,NW,308,10.0,15.8,77,0.00,,FEW,0.00,VWS V14.00,2013-03-15 22:26:00,
2013-03-15 18:30:00,29.8,28.4,29.68,WNW,287,8.8,12.7,94,0.00,,SCT,0.00,VWS V14.00,2013-03-15 22:30:00,
2013-03-15 18:31:00,30.8,24.7,29.71,NW,309,3.2,4.7,78,0.00,,FEW,0.00,VWS V14.00,2013-03-15 22:31:00,
2013-03-15 18:36:00,30.7,24.6,29.71,WNW,283,11.7,14.9,78,0.00,,FEW,0.00,VWS V14.00,2013-03-15 22:36:00,
2013-03-15 18:41:00,30.6,24.7,29.72,WNW,298,9.9,17.3,78,0.00,,FEW,0.00,VWS V14.00,2013-03-15 22:41:00,
2013-03-15 18:46:00,30.4,23.7,29.73,WNW,290,7.9,17.3,76,0.00,,FEW,0.00,VWS V14.00,2013-03-15 22:46:00,
2013-03-15 18:51:00,30.4,23.1,29.73,WNW,292,8.6,17.3,74,0.00,,FEW,0.00,VWS V14.00,2013-03-15 22:51:00,
2013-03-15 18:56:00,30.3,23.0,29.73,NW,323,6.1,17.3,74,0.00,,FEW,0.00,VWS V14.00,2013-03-15 22:56:00,
2013-03-15 19:00:00,31.1,26.6,29.69,NW,321,5.5,10.1,83,0.00,,SCT,0.00,VWS V14.00,2013-03-15 23:00:00,
2013-03-15 19:01:00,30.3,23.1,29.74,WNW,295,8.5,8.6,74,0.00,,FEW,0.00,VWS V14.00,2013-03-15 23:01:00,
2013-03-15 19:06:00,30.4,22.7,29.74,WNW,298,6.1,12.9,73,0.00,,FEW,0.00,VWS V14.00,2013-03-15 23:06:00,
2013-03-15 19:11:00,30.3,22.0,29.74,WNW,294,10.0,12.9,71,0.00,,FEW,0.00,VWS V14.00,2013-03-15 23:11:00,
2013-03-15 19:26:00,29.9,21.0,29.74,West,278,7.9,14.1,69,0.00,,FEW,0.00,VWS V14.00,2013-03-15 23:26:00,
2013-03-15 19:30:00,30.7,24.6,29.71,NW,315,4.7,15.8,78,0.00,,SCT,0.00,VWS V14.00,2013-03-15 23:30:00,
2013-03-15 19:36:00,29.6,19.9,29.75,WNW,292,3.0,12.4,67,0.00,,FEW,0.00,VWS V14.00,2013-03-15 23:36:00,
2013-03-15 19:41:00,29.2,18.8,29.76,NW,307,6.3,15.0,65,0.00,,FEW,0.00,VWS V14.00,2013-03-15 23:41:00,
2013-03-15 19:46:00,29.4,17.9,29.76,WNW,300,6.7,15.0,62,0.00,,FEW,0.00,VWS V14.00,2013-03-15 23:46:00,
2013-03-15 19:51:00,29.3,17.2,29.77,West,280,10.7,15.0,60,0.00,,FEW,0.00,VWS V14.00,2013-03-15 23:51:00,
2013-03-15 19:56:00,29.0,17.5,29.77,WNW,288,6.3,15.0,62,0.00,,FEW,0.00,VWS V14.00,2013-03-15 23:56:00,
2013-03-15 20:00:00,30.2,22.9,29.74,WNW,294,6.9,17.3,74,0.00,,SCT,0.00,VWS V14.00,2013-03-16 00:00:00,
2013-03-15 20:02:00,28.7,17.3,29.77,WNW,287,8.3,9.8,62,0.00,,FEW,0.00,VWS V14.00,2013-03-16 00:02:00,
2013-03-15 20:07:00,28.8,17.7,29.77,West,280,5.2,9.8,63,0.00,,FEW,0.00,VWS V14.00,2013-03-16 00:07:00,
2013-03-15 20:12:00,28.4,17.6,29.78,West,274,5.2,9.8,63,0.00,,FEW,0.00,VWS V14.00,2013-03-16 00:12:00,
2013-03-15 20:17:00,28.3,17.8,29.78,West,278,6.9,9.8,64,0.00,,FEW,0.00,VWS V14.00,2013-03-16 00:17:00,
2013-03-15 20:22:00,28.1,17.5,29.78,WNW,292,6.2,9.8,64,0.00,,FEW,0.00,VWS V14.00,2013-03-16 00:22:00,
2013-03-15 20:27:00,28.1,17.5,29.79,WNW,298,3.4,9.8,64,0.00,,FEW,0.00,VWS V14.00,2013-03-16 00:27:00,
2013-03-15 20:30:00,29.8,20.4,29.75,WNW,301,8.0,14.1,68,0.00,,SCT,0.00,VWS V14.00,2013-03-16 00:30:00,
2013-03-15 20:32:00,28.0,17.1,29.79,WNW,288,10.3,11.7,63,0.00,,FEW,0.00,VWS V14.00,2013-03-16 00:32:00,
2013-03-15 20:37:00,27.8,16.9,29.80,WNW,297,8.2,13.4,63,0.00,,FEW,0.00,VWS V14.00,2013-03-16 00:37:00,
2013-03-15 20:42:00,27.7,16.6,29.80,NW,305,13.2,13.4,63,0.00,,FEW,0.00,VWS V14.00,2013-03-16 00:42:00,
2013-03-15 20:47:00,27.7,16.5,29.80,NNW,330,7.6,13.4,62,0.00,,FEW,0.00,VWS V14.00,2013-03-16 00:47:00,
2013-03-15 20:57:00,27.6,16.1,29.81,WNW,298,5.0,13.4,62,0.00,,FEW,0.00,VWS V14.00,2013-03-16 00:57:00,
2013-03-15 21:00:00,28.9,17.6,29.77,NW,305,6.2,15.0,62,0.00,,SCT,0.00,VWS V14.00,2013-03-16 01:00:00,
2013-03-15 21:02:00,27.4,15.8,29.81,WNW,302,7.9,12.7,61,0.00,,FEW,0.00,VWS V14.00,2013-03-16 01:02:00,
2013-03-15 21:07:00,27.4,15.6,29.81,NW,308,6.5,12.7,61,0.00,,FEW,0.00,VWS V14.00,2013-03-16 01:07:00,
2013-03-15 21:12:00,27.5,15.6,29.82,West,267,3.8,12.8,60,0.00,,FEW,0.00,VWS V14.00,2013-03-16 01:12:00,
2013-03-15 21:17:00,27.4,15.5,29.82,West,267,4.8,12.8,60,0.00,,FEW,0.00,VWS V14.00,2013-03-16 01:17:00,
2013-03-15 21:22:00,27.3,15.4,29.82,West,259,6.2,12.8,60,0.00,,FEW,0.00,VWS V14.00,2013-03-16 01:22:00,
2013-03-15 21:27:00,27.1,15.4,29.82,WNW,294,3.5,12.8,61,0.00,,FEW,0.00,VWS V14.00,2013-03-16 01:27:00,
2013-03-15 21:30:00,28.0,17.4,29.79,NW,304,11.1,14.2,64,0.00,,SCT,0.00,VWS V14.00,2013-03-16 01:30:00,
2013-03-15 21:32:00,27.0,15.5,29.82,WNW,295,5.0,10.4,62,0.00,,FEW,0.00,VWS V14.00,2013-03-16 01:32:00,
2013-03-15 21:37:00,26.9,15.4,29.83,NW,304,5.0,10.4,61,0.00,,FEW,0.00,VWS V14.00,2013-03-16 01:37:00,
2013-03-15 21:42:00,26.6,15.2,29.83,NW,309,6.5,10.4,62,0.00,,FEW,0.00,VWS V14.00,2013-03-16 01:42:00,
2013-03-15 21:47:00,26.5,15.7,29.83,WNW,287,8.2,11.9,63,0.00,,FEW,0.00,VWS V14.00,2013-03-16 01:47:00,
2013-03-15 21:52:00,26.6,15.8,29.84,NW,323,4.4,12.8,63,0.00,,FEW,0.00,VWS V14.00,2013-03-16 01:52:00,
2013-03-15 21:57:00,26.5,15.9,29.84,WNW,298,7.0,12.9,64,0.00,,FEW,0.00,VWS V14.00,2013-03-16 01:57:00,
2013-03-15 22:00:00,27.5,16.2,29.81,WNW,295,3.2,13.4,62,0.00,,SCT,0.00,VWS V14.00,2013-03-16 02:00:00,
2013-03-15 22:02:00,26.4,16.0,29.84,West,267,8.1,14.0,64,0.00,,FEW,0.00,VWS V14.00,2013-03-16 02:02:00,
2013-03-15 22:07:00,26.3,16.1,29.84,NW,308,6.8,14.0,65,0.00,,FEW,0.00,VWS V14.00,2013-03-16 02:07:00,
2013-03-15 22:12:00,26.1,16.2,29.85,WNW,301,5.8,14.0,66,0.00,,FEW,0.00,VWS V14.00,2013-03-16 02:12:00,
2013-03-15 22:17:00,26.1,16.5,29.85,West,276,10.3,14.0,67,0.00,,FEW,0.00,VWS V14.00,2013-03-16 02:17:00,
2013-03-15 22:22:00,26.0,16.7,29.86,NW,307,9.6,14.0,68,0.00,,FEW,0.00,VWS V14.00,2013-03-16 02:22:00,
2013-03-15 22:28:00,25.8,16.6,29.86,WNW,291,6.0,14.0,68,0.00,,FEW,0.00,VWS V14.00,2013-03-16 02:28:00,
2013-03-15 22:30:00,27.0,15.4,29.82,WNW,291,6.6,12.8,61,0.00,,SCT,0.00,VWS V14.00,2013-03-16 02:30:00,
2013-03-15 22:33:00,25.8,16.9,29.86,West,278,7.5,8.1,68,0.00,,FEW,0.00,VWS V14.00,2013-03-16 02:33:00,
2013-03-15 22:38:00,25.4,16.7,29.87,WNW,292,6.3,10.9,69,0.00,,FEW,0.00,VWS V14.00,2013-03-16 02:38:00,
2013-03-15 22:43:00,25.4,16.9,29.87,West,266,7.6,12.6,70,0.00,,FEW,0.00,VWS V14.00,2013-03-16 02:43:00,
2013-03-15 22:48:00,25.3,17.0,29.87,West,280,6.9,12.6,70,0.00,,FEW,0.00,VWS V14.00,2013-03-16 02:48:00,
2013-03-15 22:53:00,25.2,17.0,29.87,NW,307,2.7,12.6,71,0.00,,FEW,0.00,VWS V14.00,2013-03-16 02:53:00,
2013-03-15 22:58:00,25.1,17.1,29.88,WNW,292,9.3,12.6,71,0.00,,FEW,0.00,VWS V14.00,2013-03-16 02:58:00,
2013-03-15 23:00:00,26.3,15.8,29.84,NW,314,6.6,12.9,64,0.00,,SCT,0.00,VWS V14.00,2013-03-16 03:00:00,
2013-03-15 23:03:00,25.1,17.2,29.88,WNW,298,5.0,11.4,71,0.00,,FEW,0.00,VWS V14.00,2013-03-16 03:03:00,
2013-03-15 23:08:00,25.0,17.2,29.89,WNW,302,4.4,11.4,72,0.00,,FEW,0.00,VWS V14.00,2013-03-16 03:08:00,
2013-03-15 23:13:00,24.9,17.3,29.89,WNW,297,6.0,13.9,72,0.00,,FEW,0.00,VWS V14.00,2013-03-16 03:13:00,
2013-03-15 23:18:00,24.6,17.3,29.89,NW,305,6.5,13.9,73,0.00,,FEW,0.00,VWS V14.00,2013-03-16 03:18:00,
2013-03-15 23:23:00,24.7,17.5,29.89,WNW,288,4.1,13.9,74,0.00,,FEW,0.00,VWS V14.00,2013-03-16 03:23:00,
2013-03-15 23:28:00,24.3,17.4,29.89,WNW,297,6.3,13.9,74,0.00,,FEW,0.00,VWS V14.00,2013-03-16 03:28:00,
2013-03-15 23:30:00,25.7,16.6,29.86,NW,316,3.7,14.0,68,0.00,,SCT,0.00,VWS V14.00,2013-03-16 03:30:00,
2013-03-15 23:33:00,24.3,17.4,29.89,NW,315,6.8,8.9,75,0.00,,FEW,0.00,VWS V14.00,2013-03-16 03:33:00,
2013-03-15 23:38:00,24.1,17.3,29.90,NW,322,5.2,9.5,75,0.00,,FEW,0.00,VWS V14.00,2013-03-16 03:38:00,
2013-03-15 23:43:00,24.0,17.4,29.90,NW,305,4.6,9.5,76,0.00,,FEW,0.00,VWS V14.00,2013-03-16 03:43:00,
2013-03-15 23:48:00,23.9,17.3,29.90,West,280,11.8,14.3,75,0.00,,FEW,0.00,VWS V14.00,2013-03-16 03:48:00,
2013-03-15 23:53:00,23.7,17.1,29.90,NW,316,8.8,14.3,76,0.00,,FEW,0.00,VWS V14.00,2013-03-16 03:53:00,
2013-03-15 23:58:00,23.8,17.3,29.91,NW,305,3.4,14.3,76,0.00,,FEW,0.00,VWS V14.00,2013-03-16 03:58:00,